sensor_id;sensor_type;location;lat;lon;timestamp;P1;durP1;ratioP1;P2;durP2;ratioP2
7527;SDS011;3805;49.006;8.514;2023-01-19T00:01:04;12.53;;;9.77;;
7527;SDS011;3805;49.006;8.514;2023-01-19T00:03:52;13.73;;;11.33;;
7527;SDS011;3805;49.006;8.514;2023-01-19T00:06:41;14.63;;;10.30;;
7527;SDS011;3805;49.006;8.514;2023-01-19T00:09:31;12.10;;;10.90;;
7527;SDS011;3805;49.006;8.514;2023-01-19T00:12:19;12.87;;;10.80;;
7527;SDS011;3805;49.006;8.514;2023-01-19T00:15:08;11.47;;;10.07;;
7527;SDS011;3805;49.006;8.514;2023-01-19T00:17:58;13.73;;;9.80;;
7527;SDS011;3805;49.006;8.514;2023-01-19T00:20:46;11.63;;;10.27;;
7527;SDS011;3805;49.006;8.514;2023-01-19T00:23:35;13.37;;;9.97;;
7527;SDS011;3805;49.006;8.514;2023-01-19T00:26:25;14.80;;;11.03;;
7527;SDS011;3805;49.006;8.514;2023-01-19T00:29:14;11.60;;;9.77;;
7527;SDS011;3805;49.006;8.514;2023-01-19T00:32:03;16.10;;;10.90;;
7527;SDS011;3805;49.006;8.514;2023-01-19T00:34:52;15.40;;;12.40;;
7527;SDS011;3805;49.006;8.514;2023-01-19T00:37:41;18.77;;;12.57;;
7527;SDS011;3805;49.006;8.514;2023-01-19T00:40:31;14.57;;;12.37;;
7527;SDS011;3805;49.006;8.514;2023-01-19T00:43:21;14.00;;;12.20;;
7527;SDS011;3805;49.006;8.514;2023-01-19T00:46:10;13.73;;;12.00;;
7527;SDS011;3805;49.006;8.514;2023-01-19T00:48:59;14.90;;;12.10;;
7527;SDS011;3805;49.006;8.514;2023-01-19T00:51:47;14.80;;;11.97;;
7527;SDS011;3805;49.006;8.514;2023-01-19T00:54:36;17.03;;;13.40;;
7527;SDS011;3805;49.006;8.514;2023-01-19T00:57:24;14.47;;;12.97;;
7527;SDS011;3805;49.006;8.514;2023-01-19T01:00:17;15.37;;;12.27;;
7527;SDS011;3805;49.006;8.514;2023-01-19T01:03:06;11.93;;;10.63;;
7527;SDS011;3805;49.006;8.514;2023-01-19T01:05:55;14.50;;;13.00;;
7527;SDS011;3805;49.006;8.514;2023-01-19T01:08:43;15.63;;;11.40;;
7527;SDS011;3805;49.006;8.514;2023-01-19T01:11:32;15.03;;;11.70;;
7527;SDS011;3805;49.006;8.514;2023-01-19T01:14:20;13.87;;;12.00;;
7527;SDS011;3805;49.006;8.514;2023-01-19T01:17:11;11.40;;;10.27;;
7527;SDS011;3805;49.006;8.514;2023-01-19T01:20:00;13.57;;;11.30;;
7527;SDS011;3805;49.006;8.514;2023-01-19T01:22:54;12.53;;;10.37;;
7527;SDS011;3805;49.006;8.514;2023-01-19T01:25:43;13.60;;;10.30;;
7527;SDS011;3805;49.006;8.514;2023-01-19T01:28:32;11.77;;;10.50;;
7527;SDS011;3805;49.006;8.514;2023-01-19T01:31:21;10.30;;;9.23;;
7527;SDS011;3805;49.006;8.514;2023-01-19T01:34:11;13.33;;;11.17;;
7527;SDS011;3805;49.006;8.514;2023-01-19T01:36:59;10.80;;;9.70;;
7527;SDS011;3805;49.006;8.514;2023-01-19T01:39:47;11.63;;;10.43;;
7527;SDS011;3805;49.006;8.514;2023-01-19T01:42:36;11.43;;;10.23;;
7527;SDS011;3805;49.006;8.514;2023-01-19T01:45:28;14.23;;;10.30;;
7527;SDS011;3805;49.006;8.514;2023-01-19T01:48:19;13.40;;;9.10;;
7527;SDS011;3805;49.006;8.514;2023-01-19T01:51:12;11.70;;;9.50;;
7527;SDS011;3805;49.006;8.514;2023-01-19T01:54:12;12.90;;;10.00;;
7527;SDS011;3805;49.006;8.514;2023-01-19T01:57:04;10.00;;;9.10;;
7527;SDS011;3805;49.006;8.514;2023-01-19T01:59:58;12.23;;;8.97;;
7527;SDS011;3805;49.006;8.514;2023-01-19T02:02:46;10.30;;;8.50;;
7527;SDS011;3805;49.006;8.514;2023-01-19T02:05:37;10.60;;;7.80;;
7527;SDS011;3805;49.006;8.514;2023-01-19T02:08:29;9.33;;;8.37;;
7527;SDS011;3805;49.006;8.514;2023-01-19T02:11:37;10.07;;;9.00;;
7527;SDS011;3805;49.006;8.514;2023-01-19T02:14:43;11.43;;;7.50;;
7527;SDS011;3805;49.006;8.514;2023-01-19T02:17:31;10.77;;;7.53;;
7527;SDS011;3805;49.006;8.514;2023-01-19T02:20:20;9.70;;;7.93;;
7527;SDS011;3805;49.006;8.514;2023-01-19T02:23:12;11.50;;;8.40;;
7527;SDS011;3805;49.006;8.514;2023-01-19T02:26:05;13.47;;;9.20;;
7527;SDS011;3805;49.006;8.514;2023-01-19T02:28:57;9.77;;;8.83;;
7527;SDS011;3805;49.006;8.514;2023-01-19T02:31:46;13.13;;;7.67;;
7527;SDS011;3805;49.006;8.514;2023-01-19T02:34:35;9.60;;;8.70;;
7527;SDS011;3805;49.006;8.514;2023-01-19T02:37:23;9.17;;;8.17;;
7527;SDS011;3805;49.006;8.514;2023-01-19T02:40:13;9.50;;;8.37;;
7527;SDS011;3805;49.006;8.514;2023-01-19T02:43:04;9.17;;;8.37;;
7527;SDS011;3805;49.006;8.514;2023-01-19T02:45:54;10.37;;;9.13;;
7527;SDS011;3805;49.006;8.514;2023-01-19T02:48:43;10.00;;;8.57;;
7527;SDS011;3805;49.006;8.514;2023-01-19T02:51:31;10.73;;;9.30;;
7527;SDS011;3805;49.006;8.514;2023-01-19T02:57:34;16.70;;;10.60;;
7527;SDS011;3805;49.006;8.514;2023-01-19T03:00:32;12.97;;;9.60;;
7527;SDS011;3805;49.006;8.514;2023-01-19T03:03:24;11.90;;;10.33;;
7527;SDS011;3805;49.006;8.514;2023-01-19T03:06:19;12.50;;;9.43;;
7527;SDS011;3805;49.006;8.514;2023-01-19T03:09:13;10.57;;;9.47;;
7527;SDS011;3805;49.006;8.514;2023-01-19T03:12:09;13.77;;;10.53;;
7527;SDS011;3805;49.006;8.514;2023-01-19T03:15:04;11.67;;;10.47;;
7527;SDS011;3805;49.006;8.514;2023-01-19T03:18:00;12.13;;;9.40;;
7527;SDS011;3805;49.006;8.514;2023-01-19T03:20:49;14.60;;;10.73;;
7527;SDS011;3805;49.006;8.514;2023-01-19T03:23:40;15.40;;;9.87;;
7527;SDS011;3805;49.006;8.514;2023-01-19T03:26:29;10.43;;;9.40;;
7527;SDS011;3805;49.006;8.514;2023-01-19T03:29:19;12.70;;;9.80;;
7527;SDS011;3805;49.006;8.514;2023-01-19T03:32:10;11.50;;;10.37;;
7527;SDS011;3805;49.006;8.514;2023-01-19T03:35:02;11.97;;;10.00;;
7527;SDS011;3805;49.006;8.514;2023-01-19T03:37:54;11.83;;;9.00;;
7527;SDS011;3805;49.006;8.514;2023-01-19T03:40:44;10.73;;;9.60;;
7527;SDS011;3805;49.006;8.514;2023-01-19T03:43:33;14.63;;;10.27;;
7527;SDS011;3805;49.006;8.514;2023-01-19T03:46:23;10.27;;;9.20;;
7527;SDS011;3805;49.006;8.514;2023-01-19T03:49:12;10.30;;;8.77;;
7527;SDS011;3805;49.006;8.514;2023-01-19T03:52:02;14.27;;;9.90;;
7527;SDS011;3805;49.006;8.514;2023-01-19T03:54:51;12.90;;;9.43;;
7527;SDS011;3805;49.006;8.514;2023-01-19T03:57:39;17.83;;;10.67;;
7527;SDS011;3805;49.006;8.514;2023-01-19T04:00:28;13.60;;;11.93;;
7527;SDS011;3805;49.006;8.514;2023-01-19T04:03:17;11.27;;;10.03;;
7527;SDS011;3805;49.006;8.514;2023-01-19T04:06:06;12.47;;;10.00;;
7527;SDS011;3805;49.006;8.514;2023-01-19T04:08:56;10.70;;;8.83;;
7527;SDS011;3805;49.006;8.514;2023-01-19T04:11:45;12.23;;;10.40;;
7527;SDS011;3805;49.006;8.514;2023-01-19T04:14:33;15.00;;;10.50;;
7527;SDS011;3805;49.006;8.514;2023-01-19T04:17:22;12.20;;;11.00;;
7527;SDS011;3805;49.006;8.514;2023-01-19T04:20:10;11.53;;;10.33;;
7527;SDS011;3805;49.006;8.514;2023-01-19T04:22:59;12.00;;;9.57;;
7527;SDS011;3805;49.006;8.514;2023-01-19T04:25:50;14.20;;;10.80;;
7527;SDS011;3805;49.006;8.514;2023-01-19T04:28:44;11.70;;;10.40;;
7527;SDS011;3805;49.006;8.514;2023-01-19T04:31:33;13.77;;;11.43;;
7527;SDS011;3805;49.006;8.514;2023-01-19T04:34:22;15.70;;;10.53;;
7527;SDS011;3805;49.006;8.514;2023-01-19T04:37:11;16.50;;;11.27;;
7527;SDS011;3805;49.006;8.514;2023-01-19T04:40:00;16.33;;;10.93;;
7527;SDS011;3805;49.006;8.514;2023-01-19T04:42:50;11.33;;;10.13;;
7527;SDS011;3805;49.006;8.514;2023-01-19T04:45:38;12.27;;;11.00;;
7527;SDS011;3805;49.006;8.514;2023-01-19T04:48:27;11.53;;;9.40;;
7527;SDS011;3805;49.006;8.514;2023-01-19T04:51:15;13.30;;;11.17;;
7527;SDS011;3805;49.006;8.514;2023-01-19T04:54:04;13.10;;;10.70;;
7527;SDS011;3805;49.006;8.514;2023-01-19T04:56:52;11.70;;;10.50;;
7527;SDS011;3805;49.006;8.514;2023-01-19T04:59:42;13.23;;;9.53;;
7527;SDS011;3805;49.006;8.514;2023-01-19T05:02:31;11.17;;;10.07;;
7527;SDS011;3805;49.006;8.514;2023-01-19T05:05:20;15.27;;;10.70;;
7527;SDS011;3805;49.006;8.514;2023-01-19T05:08:08;12.70;;;10.10;;
7527;SDS011;3805;49.006;8.514;2023-01-19T05:10:56;11.83;;;10.63;;
7527;SDS011;3805;49.006;8.514;2023-01-19T05:13:45;12.70;;;11.37;;
7527;SDS011;3805;49.006;8.514;2023-01-19T05:16:38;16.80;;;12.07;;
7527;SDS011;3805;49.006;8.514;2023-01-19T05:19:26;13.77;;;11.00;;
7527;SDS011;3805;49.006;8.514;2023-01-19T05:22:15;14.47;;;11.77;;
7527;SDS011;3805;49.006;8.514;2023-01-19T05:25:04;15.67;;;12.43;;
7527;SDS011;3805;49.006;8.514;2023-01-19T05:27:54;14.60;;;12.97;;
7527;SDS011;3805;49.006;8.514;2023-01-19T05:30:43;15.50;;;12.33;;
7527;SDS011;3805;49.006;8.514;2023-01-19T05:33:33;15.73;;;11.53;;
7527;SDS011;3805;49.006;8.514;2023-01-19T05:36:21;20.37;;;12.00;;
7527;SDS011;3805;49.006;8.514;2023-01-19T05:39:10;13.80;;;12.20;;
7527;SDS011;3805;49.006;8.514;2023-01-19T05:41:58;14.60;;;13.10;;
7527;SDS011;3805;49.006;8.514;2023-01-19T05:44:47;13.93;;;12.40;;
7527;SDS011;3805;49.006;8.514;2023-01-19T05:47:35;13.13;;;11.40;;
7527;SDS011;3805;49.006;8.514;2023-01-19T05:50:25;17.17;;;12.00;;
7527;SDS011;3805;49.006;8.514;2023-01-19T05:53:14;18.07;;;13.37;;
7527;SDS011;3805;49.006;8.514;2023-01-19T05:56:03;16.37;;;14.00;;
7527;SDS011;3805;49.006;8.514;2023-01-19T05:58:54;17.23;;;12.13;;
7527;SDS011;3805;49.006;8.514;2023-01-19T06:01:43;14.27;;;12.50;;
7527;SDS011;3805;49.006;8.514;2023-01-19T06:04:31;13.50;;;12.10;;
7527;SDS011;3805;49.006;8.514;2023-01-19T06:07:21;13.90;;;12.07;;
7527;SDS011;3805;49.006;8.514;2023-01-19T06:10:11;16.03;;;12.97;;
7527;SDS011;3805;49.006;8.514;2023-01-19T06:12:59;16.30;;;12.27;;
7527;SDS011;3805;49.006;8.514;2023-01-19T06:15:54;13.50;;;11.97;;
7527;SDS011;3805;49.006;8.514;2023-01-19T06:18:43;16.37;;;13.50;;
7527;SDS011;3805;49.006;8.514;2023-01-19T06:21:32;14.10;;;12.60;;
7527;SDS011;3805;49.006;8.514;2023-01-19T06:24:22;17.23;;;12.27;;
7527;SDS011;3805;49.006;8.514;2023-01-19T06:27:11;16.63;;;11.53;;
7527;SDS011;3805;49.006;8.514;2023-01-19T06:29:59;14.30;;;11.60;;
7527;SDS011;3805;49.006;8.514;2023-01-19T06:32:48;20.43;;;12.63;;
7527;SDS011;3805;49.006;8.514;2023-01-19T06:35:36;14.27;;;11.93;;
7527;SDS011;3805;49.006;8.514;2023-01-19T06:38:25;14.27;;;11.50;;
7527;SDS011;3805;49.006;8.514;2023-01-19T06:41:16;18.93;;;11.50;;
7527;SDS011;3805;49.006;8.514;2023-01-19T06:44:04;15.27;;;11.60;;
7527;SDS011;3805;49.006;8.514;2023-01-19T06:46:54;12.70;;;11.23;;
7527;SDS011;3805;49.006;8.514;2023-01-19T06:50:02;13.53;;;10.80;;
7527;SDS011;3805;49.006;8.514;2023-01-19T06:52:50;16.83;;;12.60;;
7527;SDS011;3805;49.006;8.514;2023-01-19T06:55:39;15.07;;;11.93;;
7527;SDS011;3805;49.006;8.514;2023-01-19T06:58:29;16.30;;;11.80;;
7527;SDS011;3805;49.006;8.514;2023-01-19T07:01:20;16.43;;;10.93;;
7527;SDS011;3805;49.006;8.514;2023-01-19T07:04:09;13.43;;;12.13;;
7527;SDS011;3805;49.006;8.514;2023-01-19T07:07:00;16.80;;;12.50;;
7527;SDS011;3805;49.006;8.514;2023-01-19T07:09:48;17.03;;;11.40;;
7527;SDS011;3805;49.006;8.514;2023-01-19T07:12:40;11.77;;;10.53;;
7527;SDS011;3805;49.006;8.514;2023-01-19T07:15:31;11.63;;;10.37;;
7527;SDS011;3805;49.006;8.514;2023-01-19T07:18:19;15.30;;;11.50;;
7527;SDS011;3805;49.006;8.514;2023-01-19T07:21:08;15.10;;;11.70;;
7527;SDS011;3805;49.006;8.514;2023-01-19T07:23:57;11.87;;;10.60;;
7527;SDS011;3805;49.006;8.514;2023-01-19T07:26:45;14.70;;;10.77;;
7527;SDS011;3805;49.006;8.514;2023-01-19T07:29:34;11.53;;;10.33;;
7527;SDS011;3805;49.006;8.514;2023-01-19T07:32:24;12.00;;;10.80;;
7527;SDS011;3805;49.006;8.514;2023-01-19T07:35:13;15.80;;;10.50;;
7527;SDS011;3805;49.006;8.514;2023-01-19T07:38:01;14.27;;;12.27;;
7527;SDS011;3805;49.006;8.514;2023-01-19T07:40:50;15.17;;;11.27;;
7527;SDS011;3805;49.006;8.514;2023-01-19T07:43:39;11.70;;;9.40;;
7527;SDS011;3805;49.006;8.514;2023-01-19T07:46:27;11.07;;;9.97;;
7527;SDS011;3805;49.006;8.514;2023-01-19T07:49:17;11.00;;;9.77;;
7527;SDS011;3805;49.006;8.514;2023-01-19T07:52:06;12.10;;;10.40;;
7527;SDS011;3805;49.006;8.514;2023-01-19T07:54:55;10.80;;;9.60;;
7527;SDS011;3805;49.006;8.514;2023-01-19T07:57:46;10.60;;;9.50;;
7527;SDS011;3805;49.006;8.514;2023-01-19T08:00:37;12.83;;;9.90;;
7527;SDS011;3805;49.006;8.514;2023-01-19T08:03:25;10.97;;;9.80;;
7527;SDS011;3805;49.006;8.514;2023-01-19T08:09:06;12.00;;;9.47;;
7527;SDS011;3805;49.006;8.514;2023-01-19T08:11:56;11.70;;;9.57;;
7527;SDS011;3805;49.006;8.514;2023-01-19T08:14:44;11.33;;;10.13;;
7527;SDS011;3805;49.006;8.514;2023-01-19T08:17:33;13.10;;;10.60;;
7527;SDS011;3805;49.006;8.514;2023-01-19T08:20:22;11.37;;;9.57;;
7527;SDS011;3805;49.006;8.514;2023-01-19T08:23:12;11.50;;;10.30;;
7527;SDS011;3805;49.006;8.514;2023-01-19T08:26:01;11.30;;;10.30;;
7527;SDS011;3805;49.006;8.514;2023-01-19T08:28:49;12.37;;;10.13;;
7527;SDS011;3805;49.006;8.514;2023-01-19T08:31:38;13.67;;;10.70;;
7527;SDS011;3805;49.006;8.514;2023-01-19T08:34:27;11.90;;;10.70;;
7527;SDS011;3805;49.006;8.514;2023-01-19T08:37:18;13.53;;;9.60;;
7527;SDS011;3805;49.006;8.514;2023-01-19T08:40:08;13.30;;;9.70;;
7527;SDS011;3805;49.006;8.514;2023-01-19T08:42:58;12.20;;;10.10;;
7527;SDS011;3805;49.006;8.514;2023-01-19T08:45:50;13.37;;;10.70;;
7527;SDS011;3805;49.006;8.514;2023-01-19T08:48:39;13.20;;;10.10;;
7527;SDS011;3805;49.006;8.514;2023-01-19T08:51:27;10.77;;;9.67;;
7527;SDS011;3805;49.006;8.514;2023-01-19T08:54:16;12.23;;;11.03;;
7527;SDS011;3805;49.006;8.514;2023-01-19T08:57:07;12.07;;;10.90;;
7527;SDS011;3805;49.006;8.514;2023-01-19T08:59:56;11.73;;;10.47;;
7527;SDS011;3805;49.006;8.514;2023-01-19T09:02:44;12.90;;;10.40;;
7527;SDS011;3805;49.006;8.514;2023-01-19T09:05:34;11.97;;;10.77;;
7527;SDS011;3805;49.006;8.514;2023-01-19T09:08:24;13.97;;;10.77;;
7527;SDS011;3805;49.006;8.514;2023-01-19T09:11:13;13.93;;;11.40;;
7527;SDS011;3805;49.006;8.514;2023-01-19T09:14:04;11.13;;;10.00;;
7527;SDS011;3805;49.006;8.514;2023-01-19T09:16:53;12.63;;;11.23;;
7527;SDS011;3805;49.006;8.514;2023-01-19T09:19:42;10.80;;;9.70;;
7527;SDS011;3805;49.006;8.514;2023-01-19T09:22:30;12.57;;;10.00;;
7527;SDS011;3805;49.006;8.514;2023-01-19T09:25:19;12.00;;;9.90;;
7527;SDS011;3805;49.006;8.514;2023-01-19T09:28:08;11.40;;;9.67;;
7527;SDS011;3805;49.006;8.514;2023-01-19T09:31:02;11.50;;;9.57;;
7527;SDS011;3805;49.006;8.514;2023-01-19T09:33:52;9.10;;;8.07;;
7527;SDS011;3805;49.006;8.514;2023-01-19T09:36:40;10.00;;;9.00;;
7527;SDS011;3805;49.006;8.514;2023-01-19T09:39:29;12.80;;;9.50;;
7527;SDS011;3805;49.006;8.514;2023-01-19T09:42:18;12.50;;;10.90;;
7527;SDS011;3805;49.006;8.514;2023-01-19T09:45:12;10.47;;;9.40;;
7527;SDS011;3805;49.006;8.514;2023-01-19T09:48:06;13.30;;;9.83;;
7527;SDS011;3805;49.006;8.514;2023-01-19T09:51:05;9.23;;;8.33;;
7527;SDS011;3805;49.006;8.514;2023-01-19T09:54:05;10.20;;;9.10;;
7527;SDS011;3805;49.006;8.514;2023-01-19T09:56:59;9.53;;;8.63;;
7527;SDS011;3805;49.006;8.514;2023-01-19T09:59:47;10.17;;;9.10;;
7527;SDS011;3805;49.006;8.514;2023-01-19T10:02:38;10.10;;;9.10;;
7527;SDS011;3805;49.006;8.514;2023-01-19T10:05:32;11.13;;;8.50;;
7527;SDS011;3805;49.006;8.514;2023-01-19T10:08:26;10.80;;;9.20;;
7527;SDS011;3805;49.006;8.514;2023-01-19T10:11:24;9.13;;;8.20;;
7527;SDS011;3805;49.006;8.514;2023-01-19T10:14:33;10.07;;;9.00;;
7527;SDS011;3805;49.006;8.514;2023-01-19T10:17:25;9.80;;;8.80;;
7527;SDS011;3805;49.006;8.514;2023-01-19T10:20:24;12.13;;;9.20;;
7527;SDS011;3805;49.006;8.514;2023-01-19T10:23:20;11.40;;;8.23;;
7527;SDS011;3805;49.006;8.514;2023-01-19T10:26:13;9.63;;;8.63;;
7527;SDS011;3805;49.006;8.514;2023-01-19T10:29:04;13.00;;;9.10;;
7527;SDS011;3805;49.006;8.514;2023-01-19T10:32:00;11.97;;;9.93;;
7527;SDS011;3805;49.006;8.514;2023-01-19T10:34:54;10.73;;;9.20;;
7527;SDS011;3805;49.006;8.514;2023-01-19T10:37:44;11.60;;;10.30;;
7527;SDS011;3805;49.006;8.514;2023-01-19T10:40:35;10.03;;;9.03;;
7527;SDS011;3805;49.006;8.514;2023-01-19T10:43:37;12.60;;;9.97;;
7527;SDS011;3805;49.006;8.514;2023-01-19T10:46:30;11.20;;;10.10;;
7527;SDS011;3805;49.006;8.514;2023-01-19T10:49:22;12.37;;;10.33;;
7527;SDS011;3805;49.006;8.514;2023-01-19T10:52:19;12.27;;;10.47;;
7527;SDS011;3805;49.006;8.514;2023-01-19T10:55:21;13.77;;;11.20;;
7527;SDS011;3805;49.006;8.514;2023-01-19T10:58:26;12.13;;;10.30;;
7527;SDS011;3805;49.006;8.514;2023-01-19T11:01:17;16.60;;;11.00;;
7527;SDS011;3805;49.006;8.514;2023-01-19T11:04:18;13.80;;;10.40;;
7527;SDS011;3805;49.006;8.514;2023-01-19T11:07:12;11.90;;;10.70;;
7527;SDS011;3805;49.006;8.514;2023-01-19T11:10:15;13.03;;;11.43;;
7527;SDS011;3805;49.006;8.514;2023-01-19T11:13:09;12.40;;;11.10;;
7527;SDS011;3805;49.006;8.514;2023-01-19T11:16:04;12.83;;;10.53;;
7527;SDS011;3805;49.006;8.514;2023-01-19T11:18:57;13.37;;;11.07;;
7527;SDS011;3805;49.006;8.514;2023-01-19T11:21:48;11.57;;;10.30;;
7527;SDS011;3805;49.006;8.514;2023-01-19T11:24:37;13.90;;;11.83;;
7527;SDS011;3805;49.006;8.514;2023-01-19T11:27:26;11.93;;;10.70;;
7527;SDS011;3805;49.006;8.514;2023-01-19T11:30:16;14.63;;;10.87;;
7527;SDS011;3805;49.006;8.514;2023-01-19T11:33:10;13.23;;;10.43;;
7527;SDS011;3805;49.006;8.514;2023-01-19T11:36:13;13.90;;;11.97;;
7527;SDS011;3805;49.006;8.514;2023-01-19T11:39:14;13.03;;;11.47;;
7527;SDS011;3805;49.006;8.514;2023-01-19T11:42:09;12.20;;;11.00;;
7527;SDS011;3805;49.006;8.514;2023-01-19T11:45:02;13.40;;;11.33;;
7527;SDS011;3805;49.006;8.514;2023-01-19T11:47:52;15.30;;;10.23;;
7527;SDS011;3805;49.006;8.514;2023-01-19T11:50:42;13.57;;;11.83;;
7527;SDS011;3805;49.006;8.514;2023-01-19T11:53:31;11.80;;;10.60;;
7527;SDS011;3805;49.006;8.514;2023-01-19T11:56:21;11.20;;;10.00;;
7527;SDS011;3805;49.006;8.514;2023-01-19T11:59:11;12.57;;;11.03;;
7527;SDS011;3805;49.006;8.514;2023-01-19T12:02:00;12.70;;;10.50;;
7527;SDS011;3805;49.006;8.514;2023-01-19T12:04:49;12.50;;;10.30;;
7527;SDS011;3805;49.006;8.514;2023-01-19T12:07:40;15.10;;;10.23;;
7527;SDS011;3805;49.006;8.514;2023-01-19T12:10:32;12.83;;;10.07;;
7527;SDS011;3805;49.006;8.514;2023-01-19T12:13:24;10.30;;;9.20;;
7527;SDS011;3805;49.006;8.514;2023-01-19T12:16:16;12.27;;;10.70;;
7527;SDS011;3805;49.006;8.514;2023-01-19T12:19:09;10.97;;;9.97;;
7527;SDS011;3805;49.006;8.514;2023-01-19T12:22:01;12.90;;;9.50;;
7527;SDS011;3805;49.006;8.514;2023-01-19T12:24:53;12.10;;;10.80;;
7527;SDS011;3805;49.006;8.514;2023-01-19T12:27:44;12.33;;;10.30;;
7527;SDS011;3805;49.006;8.514;2023-01-19T12:30:34;15.43;;;11.53;;
7527;SDS011;3805;49.006;8.514;2023-01-19T12:33:33;13.83;;;10.70;;
7527;SDS011;3805;49.006;8.514;2023-01-19T12:36:35;10.33;;;9.20;;
7527;SDS011;3805;49.006;8.514;2023-01-19T12:39:25;13.00;;;10.77;;
7527;SDS011;3805;49.006;8.514;2023-01-19T12:42:15;12.10;;;10.80;;
7527;SDS011;3805;49.006;8.514;2023-01-19T12:45:07;11.47;;;9.90;;
7527;SDS011;3805;49.006;8.514;2023-01-19T12:48:00;12.83;;;10.70;;
7527;SDS011;3805;49.006;8.514;2023-01-19T12:50:50;14.37;;;10.27;;
7527;SDS011;3805;49.006;8.514;2023-01-19T12:53:38;11.37;;;10.00;;
7527;SDS011;3805;49.006;8.514;2023-01-19T12:56:28;11.63;;;10.40;;
7527;SDS011;3805;49.006;8.514;2023-01-19T12:59:22;13.40;;;11.63;;
7527;SDS011;3805;49.006;8.514;2023-01-19T13:05:47;12.47;;;10.67;;
7527;SDS011;3805;49.006;8.514;2023-01-19T13:18:21;11.50;;;10.30;;
7527;SDS011;3805;49.006;8.514;2023-01-19T13:21:10;13.27;;;11.07;;
7527;SDS011;3805;49.006;8.514;2023-01-19T13:24:00;14.50;;;10.17;;
7527;SDS011;3805;49.006;8.514;2023-01-19T13:26:52;13.27;;;11.03;;
7527;SDS011;3805;49.006;8.514;2023-01-19T13:29:43;13.87;;;11.57;;
7527;SDS011;3805;49.006;8.514;2023-01-19T13:32:33;17.07;;;12.30;;
7527;SDS011;3805;49.006;8.514;2023-01-19T13:35:22;13.07;;;10.57;;
7527;SDS011;3805;49.006;8.514;2023-01-19T13:38:10;11.20;;;9.97;;
7527;SDS011;3805;49.006;8.514;2023-01-19T13:41:00;13.60;;;11.13;;
7527;SDS011;3805;49.006;8.514;2023-01-19T13:43:51;13.67;;;10.90;;
7527;SDS011;3805;49.006;8.514;2023-01-19T13:46:44;13.93;;;11.83;;
7527;SDS011;3805;49.006;8.514;2023-01-19T13:49:35;14.17;;;12.53;;
7527;SDS011;3805;49.006;8.514;2023-01-19T13:52:26;14.57;;;11.83;;
7527;SDS011;3805;49.006;8.514;2023-01-19T13:55:15;11.23;;;9.23;;
7527;SDS011;3805;49.006;8.514;2023-01-19T13:58:17;11.53;;;10.03;;
7527;SDS011;3805;49.006;8.514;2023-01-19T14:01:18;12.63;;;10.23;;
7527;SDS011;3805;49.006;8.514;2023-01-19T14:04:24;10.70;;;9.60;;
7527;SDS011;3805;49.006;8.514;2023-01-19T14:07:17;11.73;;;9.60;;
7527;SDS011;3805;49.006;8.514;2023-01-19T14:10:12;11.77;;;9.30;;
7527;SDS011;3805;49.006;8.514;2023-01-19T14:13:03;10.70;;;8.70;;
7527;SDS011;3805;49.006;8.514;2023-01-19T14:15:54;9.47;;;8.57;;
7527;SDS011;3805;49.006;8.514;2023-01-19T14:18:44;13.47;;;10.30;;
7527;SDS011;3805;49.006;8.514;2023-01-19T14:21:36;12.03;;;10.70;;
7527;SDS011;3805;49.006;8.514;2023-01-19T14:24:27;12.93;;;10.93;;
7527;SDS011;3805;49.006;8.514;2023-01-19T14:27:19;11.13;;;9.60;;
7527;SDS011;3805;49.006;8.514;2023-01-19T14:30:13;13.50;;;10.23;;
7527;SDS011;3805;49.006;8.514;2023-01-19T14:33:11;13.43;;;10.27;;
7527;SDS011;3805;49.006;8.514;2023-01-19T14:36:26;10.13;;;9.13;;
7527;SDS011;3805;49.006;8.514;2023-01-19T14:39:18;9.73;;;8.67;;
7527;SDS011;3805;49.006;8.514;2023-01-19T14:42:14;9.73;;;8.73;;
7527;SDS011;3805;49.006;8.514;2023-01-19T14:45:13;10.60;;;9.23;;
7527;SDS011;3805;49.006;8.514;2023-01-19T14:48:04;12.33;;;9.87;;
7527;SDS011;3805;49.006;8.514;2023-01-19T14:50:59;9.17;;;8.17;;
7527;SDS011;3805;49.006;8.514;2023-01-19T14:53:50;10.90;;;9.00;;
7527;SDS011;3805;49.006;8.514;2023-01-19T14:56:42;10.27;;;9.07;;
7527;SDS011;3805;49.006;8.514;2023-01-19T14:59:32;10.77;;;9.40;;
7527;SDS011;3805;49.006;8.514;2023-01-19T15:02:21;9.87;;;8.87;;
7527;SDS011;3805;49.006;8.514;2023-01-19T15:05:10;13.00;;;10.30;;
7527;SDS011;3805;49.006;8.514;2023-01-19T15:07:58;10.67;;;8.50;;
7527;SDS011;3805;49.006;8.514;2023-01-19T15:10:49;11.60;;;9.57;;
7527;SDS011;3805;49.006;8.514;2023-01-19T15:13:38;15.80;;;10.60;;
7527;SDS011;3805;49.006;8.514;2023-01-19T15:16:30;14.03;;;10.47;;
7527;SDS011;3805;49.006;8.514;2023-01-19T15:19:20;12.20;;;10.40;;
7527;SDS011;3805;49.006;8.514;2023-01-19T15:22:10;10.67;;;9.67;;
7527;SDS011;3805;49.006;8.514;2023-01-19T15:25:00;11.90;;;10.67;;
7527;SDS011;3805;49.006;8.514;2023-01-19T15:27:49;11.27;;;10.07;;
7527;SDS011;3805;49.006;8.514;2023-01-19T15:30:38;11.87;;;10.47;;
7527;SDS011;3805;49.006;8.514;2023-01-19T15:33:28;15.10;;;12.10;;
7527;SDS011;3805;49.006;8.514;2023-01-19T15:36:17;14.20;;;9.63;;
7527;SDS011;3805;49.006;8.514;2023-01-19T15:39:07;11.80;;;10.30;;
7527;SDS011;3805;49.006;8.514;2023-01-19T15:41:56;13.97;;;11.43;;
7527;SDS011;3805;49.006;8.514;2023-01-19T15:44:45;16.17;;;11.77;;
7527;SDS011;3805;49.006;8.514;2023-01-19T15:47:34;12.80;;;11.50;;
7527;SDS011;3805;49.006;8.514;2023-01-19T15:50:24;17.53;;;10.50;;
7527;SDS011;3805;49.006;8.514;2023-01-19T15:53:13;15.20;;;11.13;;
7527;SDS011;3805;49.006;8.514;2023-01-19T15:56:03;12.97;;;10.50;;
7527;SDS011;3805;49.006;8.514;2023-01-19T15:58:52;12.13;;;10.07;;
7527;SDS011;3805;49.006;8.514;2023-01-19T16:01:42;12.70;;;10.00;;
7527;SDS011;3805;49.006;8.514;2023-01-19T16:04:30;13.87;;;10.57;;
7527;SDS011;3805;49.006;8.514;2023-01-19T16:07:20;12.00;;;10.90;;
7527;SDS011;3805;49.006;8.514;2023-01-19T16:10:09;11.90;;;10.27;;
7527;SDS011;3805;49.006;8.514;2023-01-19T16:12:59;12.27;;;11.07;;
7527;SDS011;3805;49.006;8.514;2023-01-19T16:15:47;17.63;;;10.87;;
7527;SDS011;3805;49.006;8.514;2023-01-19T16:18:36;13.90;;;11.00;;
7527;SDS011;3805;49.006;8.514;2023-01-19T16:21:25;15.90;;;11.30;;
7527;SDS011;3805;49.006;8.514;2023-01-19T16:24:15;14.13;;;9.40;;
7527;SDS011;3805;49.006;8.514;2023-01-19T16:27:04;12.03;;;10.73;;
7527;SDS011;3805;49.006;8.514;2023-01-19T16:29:54;12.40;;;10.00;;
7527;SDS011;3805;49.006;8.514;2023-01-19T16:32:43;11.67;;;9.70;;
7527;SDS011;3805;49.006;8.514;2023-01-19T16:35:32;13.47;;;10.40;;
7527;SDS011;3805;49.006;8.514;2023-01-19T16:38:20;11.40;;;10.30;;
7527;SDS011;3805;49.006;8.514;2023-01-19T16:41:11;11.43;;;9.33;;
7527;SDS011;3805;49.006;8.514;2023-01-19T16:44:00;14.47;;;9.80;;
7527;SDS011;3805;49.006;8.514;2023-01-19T16:46:49;12.43;;;9.37;;
7527;SDS011;3805;49.006;8.514;2023-01-19T16:49:38;12.50;;;10.17;;
7527;SDS011;3805;49.006;8.514;2023-01-19T16:52:27;12.07;;;10.43;;
7527;SDS011;3805;49.006;8.514;2023-01-19T16:55:16;13.73;;;10.67;;
7527;SDS011;3805;49.006;8.514;2023-01-19T16:58:05;18.70;;;13.87;;
7527;SDS011;3805;49.006;8.514;2023-01-19T17:00:54;22.00;;;14.67;;
7527;SDS011;3805;49.006;8.514;2023-01-19T17:03:43;17.70;;;14.30;;
7527;SDS011;3805;49.006;8.514;2023-01-19T17:06:32;15.87;;;11.73;;
7527;SDS011;3805;49.006;8.514;2023-01-19T17:09:21;14.23;;;11.93;;
7527;SDS011;3805;49.006;8.514;2023-01-19T17:12:09;14.93;;;12.70;;
7527;SDS011;3805;49.006;8.514;2023-01-19T17:15:00;13.30;;;10.53;;
7527;SDS011;3805;49.006;8.514;2023-01-19T17:17:50;20.20;;;16.57;;
7527;SDS011;3805;49.006;8.514;2023-01-19T17:20:38;14.63;;;13.07;;
7527;SDS011;3805;49.006;8.514;2023-01-19T17:23:27;16.47;;;13.57;;
7527;SDS011;3805;49.006;8.514;2023-01-19T17:26:16;20.27;;;16.17;;
7527;SDS011;3805;49.006;8.514;2023-01-19T17:29:06;19.03;;;15.67;;
7527;SDS011;3805;49.006;8.514;2023-01-19T17:31:57;19.53;;;16.57;;
7527;SDS011;3805;49.006;8.514;2023-01-19T17:34:47;22.10;;;14.83;;